East Union, Indiana
Current Conditions -  °F | °C
As of 5:35 AM on Saturday 25 Oct 2014 (Local Time) from KTYQ Reporting Station
Overcast Overcast  
Wind Chill: 55°   Ceiling: 3700
Heat Index: 55°   Visibility: 10mi
Dew Point: 49°   Wind: 8mph
Humidity: 83%   Direction: 200°SSW
Pressure: 29.95"   Gusts: NA
Location:  40.1832°N, 85.9359°W
Report Text: KTYQ 250935Z AUTO 20007KT 10SM BKN037 OVC046 13/10 A2995 RMK AO2 T01260097
Loading
Personal Weather Stations






























Interactive Weather Map
Tropical Storm Tracking
New forecast layout! Learn more

10-Day Weather Forecast

Advertisements
Track Severe Weather on mobile